Time;durP1;ratioP1;P1;durP2;ratioP2;P2;SDS_P1;SDS_P2;PMS_P1;PMS_P2;Temp;Humidity;BMP_temperature;BMP_pressure;BME280_temperature;BME280_humidity;BME280_pressure;Samples;Min_cycle;Max_cycle;Signal;HPM_P1;HPM_P2
2021/07/17 00:00:45;;;;;;;23.73;11.90;;;18.10;88.40;;;;;;5084545;28;20494;-81
2021/07/17 00:03:11;;;;;;;24.00;11.60;;;18.00;88.40;;;;;;5103030;28;20411;-81
2021/07/17 00:05:36;;;;;;;28.50;12.32;;;18.00;88.50;;;;;;5098453;28;20086;-80
2021/07/17 00:08:04;;;;;;;32.17;12.05;;;18.00;88.70;;;;;;5095725;28;20067;-79
2021/07/17 00:10:46;;;;;;;27.15;11.52;;;18.00;88.70;;;;;;5077123;28;20476;-80
2021/07/17 00:13:11;;;;;;;24.40;11.68;;;17.90;88.80;;;;;;5094368;28;20128;-79
2021/07/17 00:15:37;;;;;;;24.38;11.98;;;18.00;88.90;;;;;;5093882;28;20064;-79
2021/07/17 00:18:04;;;;;;;25.42;11.60;;;18.00;89.10;;;;;;5094565;28;20081;-78
2021/07/17 00:20:30;;;;;;;27.25;11.68;;;17.90;89.20;;;;;;5093986;28;20058;-81
2021/07/17 00:22:55;;;;;;;25.50;11.35;;;17.90;89.30;;;;;;5093606;28;20024;-80
2021/07/17 00:25:22;;;;;;;27.05;11.75;;;17.90;89.40;;;;;;5094350;28;20012;-85
2021/07/17 00:27:48;;;;;;;28.27;11.77;;;17.90;89.40;;;;;;5095027;28;20024;-80
2021/07/17 00:30:16;;;;;;;25.58;11.38;;;17.90;89.40;;;;;;5095502;28;20050;-80
2021/07/17 00:32:42;;;;;;;26.30;11.80;;;17.90;89.50;;;;;;5093897;28;20475;-79
2021/07/17 00:35:09;;;;;;;21.42;10.75;;;17.90;89.50;;;;;;5093599;28;20046;-80
2021/07/17 00:37:35;;;;;;;28.38;11.00;;;17.90;89.60;;;;;;5102419;28;20027;-78
2021/07/17 00:40:03;;;;;;;27.48;11.60;;;17.90;89.60;;;;;;5107173;28;20028;-78
2021/07/17 00:42:30;;;;;;;22.75;10.75;;;17.80;89.60;;;;;;5109154;28;20020;-82
2021/07/17 00:44:56;;;;;;;25.63;11.50;;;17.80;89.70;;;;;;5109875;28;20052;-78
2021/07/17 00:47:23;;;;;;;28.27;12.00;;;17.80;89.80;;;;;;5109285;28;20024;-79
2021/07/17 00:49:49;;;;;;;22.15;10.63;;;17.70;89.90;;;;;;5108891;28;20119;-78
2021/07/17 00:52:14;;;;;;;26.05;11.32;;;17.70;90.00;;;;;;5068636;28;20070;-79
2021/07/17 00:54:41;;;;;;;28.10;12.25;;;17.70;90.00;;;;;;5093097;28;20024;-79
2021/07/17 00:57:09;;;;;;;22.27;11.07;;;17.70;90.00;;;;;;5094246;28;20059;-79
2021/07/17 00:59:37;;;;;;;26.02;10.60;;;17.60;90.10;;;;;;5093056;28;20024;-81
2021/07/17 01:02:03;;;;;;;27.10;11.60;;;17.50;90.20;;;;;;5093018;28;20080;-80
2021/07/17 01:04:30;;;;;;;22.77;11.18;;;17.50;90.30;;;;;;5093258;28;20039;-80
2021/07/17 01:06:59;;;;;;;28.50;11.32;;;17.50;90.40;;;;;;5092316;28;20107;-79
2021/07/17 01:09:28;;;;;;;29.50;11.73;;;17.50;90.40;;;;;;5092570;28;20044;-80
2021/07/17 01:11:56;;;;;;;20.27;11.15;;;17.40;90.40;;;;;;5088439;28;20057;-80
2021/07/17 01:14:22;;;;;;;28.45;11.82;;;17.40;90.50;;;;;;5077416;28;20116;-79
2021/07/17 01:16:48;;;;;;;23.83;11.85;;;17.40;90.50;;;;;;5059163;28;20459;-80
2021/07/17 01:19:14;;;;;;;26.42;12.20;;;17.40;90.60;;;;;;5092749;28;20032;-79
2021/07/17 01:21:40;;;;;;;22.58;11.88;;;17.30;90.70;;;;;;5093093;28;20020;-80
2021/07/17 01:24:06;;;;;;;26.67;12.23;;;17.20;90.70;;;;;;5093851;28;20032;-80
2021/07/17 01:26:32;;;;;;;27.52;12.10;;;17.20;90.80;;;;;;5075544;28;20020;-80
2021/07/17 01:28:57;;;;;;;27.80;11.98;;;17.20;90.90;;;;;;5092493;28;20032;-80
2021/07/17 01:31:24;;;;;;;29.98;11.82;;;17.20;91.00;;;;;;5093715;28;20036;-80
2021/07/17 01:33:50;;;;;;;30.95;12.63;;;17.10;91.00;;;;;;5075831;28;20035;-80
2021/07/17 01:36:15;;;;;;;31.80;13.05;;;17.10;91.00;;;;;;5092565;28;20561;-80
2021/07/17 01:38:42;;;;;;;27.63;12.27;;;17.10;91.10;;;;;;5093293;28;20065;-79
2021/07/17 01:41:09;;;;;;;30.35;13.48;;;17.00;91.10;;;;;;5075569;28;20145;-79
2021/07/17 01:43:35;;;;;;;26.05;12.02;;;17.00;91.20;;;;;;5093668;28;20055;-80
2021/07/17 01:46:02;;;;;;;26.17;13.05;;;17.00;91.30;;;;;;5092573;28;20388;-76
2021/07/17 01:48:28;;;;;;;26.75;12.60;;;17.00;91.30;;;;;;5092033;28;20036;-76
2021/07/17 01:50:54;;;;;;;26.35;13.02;;;17.00;91.30;;;;;;5093684;28;20119;-77
2021/07/17 01:53:21;;;;;;;28.30;12.45;;;16.90;91.30;;;;;;5075393;28;20047;-77
2021/07/17 01:55:46;;;;;;;25.67;11.85;;;16.90;91.60;;;;;;5093297;28;20039;-77
2021/07/17 01:58:12;;;;;;;21.73;12.30;;;16.90;91.40;;;;;;5092524;28;20032;-77
2021/07/17 02:00:39;;;;;;;31.33;13.00;;;16.90;91.50;;;;;;5092861;28;20440;-77
2021/07/17 02:03:08;;;;;;;26.67;12.50;;;16.80;91.50;;;;;;5075329;28;20499;-77
2021/07/17 02:05:34;;;;;;;29.20;12.70;;;16.80;91.60;;;;;;5092440;28;20460;-81
2021/07/17 02:08:00;;;;;;;32.33;13.27;;;16.90;91.60;;;;;;5075526;28;20035;-77
2021/07/17 02:10:29;;;;;;;30.65;13.52;;;16.80;91.60;;;;;;5091849;28;20048;-77
2021/07/17 02:13:07;;;;;;;24.33;12.60;;;16.80;91.70;;;;;;5093320;28;20039;-77
2021/07/17 02:15:36;;;;;;;29.73;13.52;;;16.80;91.70;;;;;;5092546;28;20432;-80
2021/07/17 02:18:02;;;;;;;27.23;12.70;;;16.80;91.70;;;;;;5096921;28;20016;-77
2021/07/17 02:20:29;;;;;;;27.85;12.70;;;16.80;91.80;;;;;;5097476;28;20028;-78
2021/07/17 02:22:55;;;;;;;27.63;12.95;;;16.80;91.80;;;;;;5096214;28;20470;-78
2021/07/17 02:25:20;;;;;;;33.75;13.15;;;16.70;91.80;;;;;;5079676;28;20038;-79
2021/07/17 02:27:46;;;;;;;24.05;11.90;;;16.70;91.80;;;;;;5096525;28;20043;-80
2021/07/17 02:30:12;;;;;;;30.48;12.55;;;16.70;91.80;;;;;;5079748;28;20114;-79
2021/07/17 02:32:38;;;;;;;28.95;13.00;;;16.70;91.90;;;;;;5078965;28;20091;-81
2021/07/17 02:35:05;;;;;;;24.65;12.90;;;16.70;91.90;;;;;;5095554;28;20056;-80
2021/07/17 02:37:30;;;;;;;24.08;13.32;;;16.70;92.00;;;;;;5062258;28;20361;-80
2021/07/17 02:39:56;;;;;;;24.33;13.45;;;16.70;92.00;;;;;;5095535;28;20028;-81
2021/07/17 02:42:22;;;;;;;29.42;13.75;;;16.60;92.00;;;;;;5095767;28;20531;-80
2021/07/17 02:44:49;;;;;;;22.45;12.05;;;16.70;92.00;;;;;;5062243;28;20035;-80
2021/07/17 02:47:15;;;;;;;26.15;11.70;;;16.60;92.00;;;;;;5096622;28;20046;-79
2021/07/17 02:49:41;;;;;;;25.70;13.20;;;16.70;92.00;;;;;;5095506;28;20028;-81
2021/07/17 02:52:06;;;;;;;23.35;12.65;;;16.60;92.00;;;;;;5095592;28;20165;-80
2021/07/17 02:54:32;;;;;;;29.33;12.23;;;16.60;92.00;;;;;;5078620;28;20464;-80
2021/07/17 02:56:58;;;;;;;27.65;13.02;;;16.60;92.00;;;;;;5095393;28;20028;-80
2021/07/17 02:59:23;;;;;;;30.45;13.65;;;16.60;92.00;;;;;;5078413;28;20024;-80
2021/07/17 03:01:49;;;;;;;27.85;13.10;;;16.60;92.10;;;;;;5078396;28;20036;-81
2021/07/17 03:04:14;;;;;;;27.42;13.50;;;16.60;92.10;;;;;;5061839;28;20020;-80
2021/07/17 03:06:40;;;;;;;24.80;12.13;;;16.50;92.10;;;;;;5078635;28;20051;-81
2021/07/17 03:09:06;;;;;;;28.88;13.15;;;16.60;92.10;;;;;;5078225;28;20139;-81
2021/07/17 03:11:33;;;;;;;27.58;13.10;;;16.60;92.20;;;;;;5095200;28;20447;-80
2021/07/17 03:14:00;;;;;;;24.70;12.80;;;16.60;92.20;;;;;;5095084;28;20024;-80
2021/07/17 03:16:25;;;;;;;24.33;12.63;;;16.60;92.20;;;;;;5095206;28;20052;-80
2021/07/17 03:18:52;;;;;;;24.10;12.27;;;16.60;92.20;;;;;;5078123;28;20493;-81
2021/07/17 03:21:18;;;;;;;26.40;12.25;;;16.50;92.20;;;;;;5095021;28;20035;-82
2021/07/17 03:23:44;;;;;;;29.08;13.30;;;16.50;92.20;;;;;;5096574;28;20024;-81
2021/07/17 03:26:09;;;;;;;22.38;12.38;;;16.50;92.30;;;;;;5077990;28;20469;-79
2021/07/17 03:28:35;;;;;;;21.13;13.73;;;16.50;92.30;;;;;;5077128;28;20024;-78
2021/07/17 03:31:01;;;;;;;23.60;13.02;;;16.50;92.40;;;;;;5077774;28;20458;-78
2021/07/17 03:33:27;;;;;;;24.13;13.02;;;16.50;92.40;;;;;;5094606;28;20071;-77
2021/07/17 03:35:52;;;;;;;25.25;12.60;;;16.50;92.40;;;;;;5078001;28;20028;-77
2021/07/17 03:38:18;;;;;;;26.60;13.07;;;16.50;92.40;;;;;;5096074;28;20033;-79
2021/07/17 03:40:44;;;;;;;28.27;12.55;;;16.40;92.40;;;;;;5094913;28;20081;-84
2021/07/17 03:43:12;;;;;;;25.33;13.07;;;16.40;92.40;;;;;;5077724;28;20131;-79
2021/07/17 03:45:38;;;;;;;27.88;13.05;;;16.40;92.40;;;;;;5094682;28;20105;-79
2021/07/17 03:48:04;;;;;;;30.38;13.98;;;16.40;92.40;;;;;;5077412;28;20028;-79
2021/07/17 03:50:30;;;;;;;29.00;14.10;;;16.40;92.50;;;;;;5096020;28;20121;-79
2021/07/17 03:52:55;;;;;;;30.98;14.35;;;16.40;92.50;;;;;;5060722;28;20063;-79
2021/07/17 03:55:21;;;;;;;29.77;14.15;;;16.40;92.50;;;;;;5094197;28;20032;-79
2021/07/17 03:57:46;;;;;;;29.73;14.85;;;16.40;92.50;;;;;;5095235;28;20048;-84
2021/07/17 04:00:13;;;;;;;31.33;14.80;;;16.40;92.50;;;;;;5094791;28;20032;-80
2021/07/17 04:02:41;;;;;;;30.25;15.82;;;16.40;92.50;;;;;;5077219;28;20028;-79
2021/07/17 04:05:15;;;;;;;32.92;15.40;;;16.40;92.50;;;;;;5094156;28;20024;-79
2021/07/17 04:07:42;;;;;;;37.22;16.70;;;16.50;92.60;;;;;;5094314;28;20082;-79
2021/07/17 04:10:10;;;;;;;29.55;15.82;;;16.60;92.60;;;;;;5076827;28;20066;-79
2021/07/17 04:12:36;;;;;;;30.25;15.52;;;16.60;92.50;;;;;;5093759;28;20068;-79
2021/07/17 04:15:03;;;;;;;31.02;14.93;;;16.70;92.50;;;;;;5093920;28;20028;-80
2021/07/17 04:17:29;;;;;;;28.25;14.40;;;16.80;92.50;;;;;;5076983;28;20063;-79
2021/07/17 04:19:55;;;;;;;30.10;14.15;;;17.00;92.40;;;;;;5094053;28;20059;-82
2021/07/17 04:22:20;;;;;;;31.63;15.75;;;17.00;92.30;;;;;;5095276;28;20084;-81
2021/07/17 04:24:46;;;;;;;42.13;17.13;;;17.10;92.30;;;;;;5095102;28;20032;-80
2021/07/17 04:27:12;;;;;;;31.40;15.27;;;17.10;92.20;;;;;;5076880;28;20032;-80
2021/07/17 04:29:38;;;;;;;32.08;15.88;;;17.20;92.20;;;;;;5094941;28;20025;-79
2021/07/17 04:32:04;;;;;;;33.60;15.50;;;17.30;92.20;;;;;;5093049;28;20512;-79
2021/07/17 04:34:29;;;;;;;31.02;16.00;;;17.30;92.10;;;;;;5076726;28;20024;-79
2021/07/17 04:36:55;;;;;;;33.05;16.88;;;17.30;92.10;;;;;;5095798;28;20032;-81
2021/07/17 04:39:21;;;;;;;28.42;15.25;;;17.40;92.00;;;;;;5093789;28;20056;-81
2021/07/17 04:41:47;;;;;;;30.17;15.20;;;17.40;92.00;;;;;;5093670;28;20109;-80
2021/07/17 04:44:12;;;;;;;36.38;16.60;;;17.40;91.90;;;;;;5093274;28;20078;-82
2021/07/17 04:46:38;;;;;;;32.58;15.23;;;17.50;91.90;;;;;;5094107;28;20027;-80
2021/07/17 04:49:03;;;;;;;27.83;14.95;;;17.60;91.90;;;;;;5076722;28;20353;-81
2021/07/17 04:51:29;;;;;;;29.40;14.98;;;17.60;91.80;;;;;;5076641;28;20036;-81
2021/07/17 04:53:55;;;;;;;33.60;15.80;;;17.70;91.70;;;;;;5094307;28;20032;-84
2021/07/17 04:56:20;;;;;;;28.20;15.57;;;17.70;91.60;;;;;;5076455;28;20531;-83
2021/07/17 04:58:46;;;;;;;29.80;14.52;;;17.70;91.60;;;;;;5060020;28;20447;-83
2021/07/17 05:01:11;;;;;;;26.50;14.57;;;17.80;91.60;;;;;;5076209;28;20097;-83
2021/07/17 05:03:37;;;;;;;33.78;14.63;;;17.80;91.70;;;;;;5076190;28;20032;-83
2021/07/17 05:06:04;;;;;;;28.23;13.98;;;17.80;91.50;;;;;;5093558;28;20173;-81
2021/07/17 05:08:30;;;;;;;35.00;15.40;;;17.90;91.50;;;;;;5094173;28;20111;-81
2021/07/17 05:10:56;;;;;;;34.00;15.80;;;17.90;91.40;;;;;;5095427;28;20044;-82
2021/07/17 05:13:22;;;;;;;27.88;13.82;;;18.00;91.30;;;;;;5061908;28;20478;-80
2021/07/17 05:15:48;;;;;;;31.58;14.57;;;18.00;91.20;;;;;;5096167;28;20028;-80
2021/07/17 05:18:13;;;;;;;29.52;13.57;;;18.10;91.10;;;;;;5079070;28;20318;-82
2021/07/17 05:20:40;;;;;;;23.05;13.35;;;18.20;91.10;;;;;;5078897;28;20029;-81
2021/07/17 05:23:06;;;;;;;28.33;13.32;;;18.20;90.90;;;;;;5097038;28;20085;-81
2021/07/17 05:25:32;;;;;;;27.30;12.98;;;18.20;90.70;;;;;;5095567;28;20024;-81
2021/07/17 05:27:58;;;;;;;23.08;11.82;;;18.30;90.50;;;;;;5096718;28;20532;-87
2021/07/17 05:30:23;;;;;;;28.50;13.70;;;18.40;90.40;;;;;;5097837;28;20035;-84
2021/07/17 05:32:49;;;;;;;29.23;13.32;;;18.50;90.10;;;;;;5078949;28;20131;-83
2021/07/17 05:35:15;;;;;;;28.38;13.57;;;18.60;89.80;;;;;;5095731;28;20105;-81
2021/07/17 05:37:42;;;;;;;25.20;11.95;;;18.60;89.60;;;;;;5080679;28;20456;-81
2021/07/17 05:40:10;;;;;;;25.67;12.15;;;18.70;89.10;;;;;;5096805;28;20029;-84
2021/07/17 05:42:35;;;;;;;25.50;10.85;;;18.90;88.60;;;;;;5096763;28;20028;-82
2021/07/17 05:45:01;;;;;;;24.42;11.35;;;19.10;87.90;;;;;;5079605;28;20114;-85
2021/07/17 05:47:28;;;;;;;23.90;11.95;;;19.20;87.30;;;;;;5076878;28;20028;-80
2021/07/17 05:49:53;;;;;;;24.27;11.50;;;19.20;87.00;;;;;;5084780;28;20056;-79
2021/07/17 05:52:19;;;;;;;25.63;11.70;;;19.10;86.70;;;;;;5097396;28;20028;-81
2021/07/17 05:54:45;;;;;;;23.50;13.20;;;19.10;86.70;;;;;;5063668;28;20032;-81
2021/07/17 05:57:10;;;;;;;26.02;12.98;;;19.00;86.40;;;;;;5096860;28;20480;-81
2021/07/17 05:59:36;;;;;;;24.27;11.73;;;18.90;86.50;;;;;;5061335;28;20036;-80
2021/07/17 06:02:03;;;;;;;27.92;13.40;;;18.90;86.70;;;;;;5091867;28;20035;-82
2021/07/17 06:04:29;;;;;;;24.55;12.48;;;19.00;86.60;;;;;;5093779;28;20089;-78
2021/07/17 06:06:55;;;;;;;25.60;12.45;;;19.10;86.40;;;;;;5093168;28;20464;-78
2021/07/17 06:09:21;;;;;;;28.38;12.57;;;19.10;86.10;;;;;;5092741;28;20020;-80
2021/07/17 06:11:47;;;;;;;24.45;12.35;;;19.10;85.90;;;;;;5077681;28;20108;-81
2021/07/17 06:14:12;;;;;;;24.70;11.00;;;19.10;85.80;;;;;;5077344;28;20078;-81
2021/07/17 06:16:38;;;;;;;24.25;11.38;;;19.20;85.70;;;;;;5095229;28;20107;-79
2021/07/17 06:19:04;;;;;;;27.02;12.13;;;19.20;85.60;;;;;;5094435;28;20056;-84
2021/07/17 06:21:30;;;;;;;24.85;11.43;;;19.20;85.20;;;;;;5095385;28;20039;-78
2021/07/17 06:23:57;;;;;;;25.30;10.88;;;19.20;85.20;;;;;;5094101;28;20027;-78
2021/07/17 06:26:22;;;;;;;21.83;10.68;;;19.30;85.00;;;;;;5076471;28;20085;-78
2021/07/17 06:28:48;;;;;;;23.05;10.55;;;19.30;84.90;;;;;;5092369;28;20406;-79
2021/07/17 06:31:15;;;;;;;27.80;11.07;;;19.40;84.80;;;;;;5075300;28;20033;-79
2021/07/17 06:33:40;;;;;;;25.08;10.23;;;19.40;84.60;;;;;;5092618;28;20078;-79
2021/07/17 06:36:08;;;;;;;22.77;10.10;;;19.50;84.30;;;;;;5075614;28;20384;-82
2021/07/17 06:38:33;;;;;;;24.02;8.90;;;19.60;84.00;;;;;;5092202;28;20063;-78
2021/07/17 06:40:59;;;;;;;24.30;10.00;;;19.80;83.80;;;;;;5092522;28;20028;-80
2021/07/17 06:43:24;;;;;;;22.85;8.88;;;20.00;83.00;;;;;;5075489;28;20064;-78
2021/07/17 06:45:50;;;;;;;19.83;10.23;;;20.20;82.30;;;;;;5092071;28;20034;-78
2021/07/17 06:48:16;;;;;;;24.20;11.05;;;20.20;82.00;;;;;;5075428;28;20028;-78
2021/07/17 06:50:43;;;;;;;25.00;11.45;;;20.20;81.90;;;;;;5093237;28;20028;-79
2021/07/17 06:53:08;;;;;;;21.33;11.25;;;20.20;81.70;;;;;;5079935;28;20028;-81
2021/07/17 06:55:34;;;;;;;27.55;11.15;;;20.30;81.60;;;;;;5080855;28;20035;-79
2021/07/17 06:58:00;;;;;;;21.67;10.40;;;20.20;81.60;;;;;;5078938;28;20027;-78
2021/07/17 07:00:26;;;;;;;22.20;10.45;;;20.30;81.80;;;;;;5100906;28;20034;-78
2021/07/17 07:02:51;;;;;;;24.70;10.95;;;20.30;81.40;;;;;;5097370;28;20103;-77
2021/07/17 07:05:17;;;;;;;26.58;11.05;;;20.30;81.30;;;;;;5081821;28;20024;-78
2021/07/17 07:07:43;;;;;;;22.67;9.95;;;20.40;81.40;;;;;;5080793;28;20107;-76
2021/07/17 07:10:09;;;;;;;26.17;10.27;;;20.60;80.80;;;;;;5078592;28;20052;-82
2021/07/17 07:12:39;;;;;;;25.80;10.25;;;20.50;80.80;;;;;;5095803;28;20099;-79
2021/07/17 07:15:09;;;;;;;22.58;10.68;;;20.40;80.90;;;;;;5095402;28;20456;-78
2021/07/17 07:17:35;;;;;;;21.13;10.57;;;20.60;81.00;;;;;;5095064;28;20028;-79
2021/07/17 07:20:02;;;;;;;30.20;11.18;;;21.00;80.10;;;;;;5096297;28;20020;-78
2021/07/17 07:22:27;;;;;;;26.83;11.25;;;21.10;79.20;;;;;;5061340;28;20038;-81
2021/07/17 07:24:53;;;;;;;21.70;10.35;;;21.10;78.90;;;;;;5062211;28;20028;-79
2021/07/17 07:27:19;;;;;;;24.08;10.65;;;21.30;78.80;;;;;;5094828;28;20499;-79
2021/07/17 07:29:45;;;;;;;24.48;9.68;;;22.20;78.10;;;;;;5077965;28;20032;-80
2021/07/17 07:32:11;;;;;;;19.98;8.13;;;23.10;75.30;;;;;;5094567;28;20483;-82
2021/07/17 07:34:37;;;;;;;20.27;8.18;;;24.00;72.90;;;;;;5078095;28;20036;-79
2021/07/17 07:37:02;;;;;;;18.50;7.32;;;24.70;70.60;;;;;;5094654;28;20115;-78
2021/07/17 07:39:28;;;;;;;19.38;7.57;;;24.80;69.00;;;;;;5094195;28;20032;-79
2021/07/17 07:41:54;;;;;;;15.00;5.90;;;24.70;69.10;;;;;;5095726;28;20115;-79
2021/07/17 07:44:20;;;;;;;15.02;5.47;;;24.60;68.60;;;;;;5077523;28;20020;-78
2021/07/17 07:46:46;;;;;;;16.58;5.10;;;24.80;68.90;;;;;;5077985;28;20032;-80
2021/07/17 07:49:12;;;;;;;14.68;4.32;;;25.50;66.70;;;;;;5094363;28;20114;-81
2021/07/17 07:51:38;;;;;;;15.32;4.00;;;25.80;65.80;;;;;;5077713;28;20039;-76
2021/07/17 07:54:04;;;;;;;19.33;4.45;;;25.70;65.40;;;;;;5094883;28;20020;-79
2021/07/17 07:56:30;;;;;;;12.65;4.95;;;25.80;65.00;;;;;;5095822;28;20029;-80
2021/07/17 07:58:55;;;;;;;13.63;4.03;;;25.80;63.80;;;;;;5077880;28;20519;-80
2021/07/17 08:01:21;;;;;;;14.20;4.88;;;25.70;64.20;;;;;;5078535;28;20117;-80
2021/07/17 08:03:47;;;;;;;13.80;5.07;;;26.30;63.40;;;;;;5094430;28;20032;-81
2021/07/17 08:06:13;;;;;;;13.25;4.88;;;26.60;61.00;;;;;;5094607;28;20123;-79
2021/07/17 08:08:38;;;;;;;10.80;4.97;;;26.40;62.80;;;;;;5094231;28;20460;-79
2021/07/17 08:11:04;;;;;;;16.35;5.88;;;26.60;61.70;;;;;;5095711;28;20063;-79
2021/07/17 08:13:31;;;;;;;14.93;5.70;;;26.50;62.00;;;;;;5077568;28;20127;-81
2021/07/17 08:15:59;;;;;;;15.13;6.05;;;26.40;62.50;;;;;;5077230;28;20173;-81
2021/07/17 08:18:25;;;;;;;21.02;5.95;;;26.40;62.70;;;;;;5061578;28;20060;-82
2021/07/17 08:20:50;;;;;;;13.27;5.57;;;26.30;62.30;;;;;;5094580;28;20069;-81
2021/07/17 08:23:16;;;;;;;14.50;4.25;;;26.00;62.80;;;;;;5079302;28;20028;-85
2021/07/17 08:25:42;;;;;;;12.88;3.97;;;25.80;62.50;;;;;;5094920;28;20447;-80
2021/07/17 08:28:08;;;;;;;10.43;3.33;;;26.10;62.00;;;;;;5078072;28;20024;-79
2021/07/17 08:30:35;;;;;;;11.00;3.67;;;26.10;62.30;;;;;;5095118;28;20059;-79
2021/07/17 08:33:02;;;;;;;11.73;3.83;;;26.70;62.00;;;;;;5094346;28;20036;-78
2021/07/17 08:35:28;;;;;;;10.02;3.50;;;27.40;60.50;;;;;;5093085;28;20075;-80
2021/07/17 08:37:53;;;;;;;7.35;2.72;;;27.80;59.20;;;;;;5093929;28;20055;-79
2021/07/17 08:40:20;;;;;;;8.77;2.95;;;28.50;58.70;;;;;;5094847;28;20021;-84
2021/07/17 08:42:47;;;;;;;10.32;4.35;;;28.90;56.70;;;;;;5093442;28;20035;-81
2021/07/17 08:45:14;;;;;;;15.70;9.07;;;29.30;56.30;;;;;;5093448;28;20090;-78
2021/07/17 08:47:42;;;;;;;12.77;6.03;;;29.80;55.50;;;;;;5094799;28;20099;-79
2021/07/17 08:50:14;;;;;;;10.77;4.60;;;30.10;54.70;;;;;;5095180;28;20099;-80
2021/07/17 08:52:40;;;;;;;;;;;30.50;54.00;;;;;;5093931;28;20023;-80
2021/07/17 08:55:08;;;;;;;15.18;5.63;;;30.80;54.20;;;;;;5077294;28;19935;-79
2021/07/17 08:57:38;;;;;;;11.18;5.53;;;31.20;52.70;;;;;;5076371;28;20490;-79
2021/07/17 09:00:07;;;;;;;9.70;3.83;;;31.30;52.20;;;;;;5094818;28;20020;-80
2021/07/17 09:02:38;;;;;;;7.30;3.53;;;31.30;50.70;;;;;;5093432;28;20533;-79
2021/07/17 09:05:09;;;;;;;8.43;2.20;;;31.30;50.30;;;;;;5094396;28;20055;-79
2021/07/17 09:07:35;;;;;;;5.80;1.92;;;31.10;49.70;;;;;;5095963;28;20134;-82
2021/07/17 09:10:28;;;;;;;8.05;2.30;;;30.50;48.90;;;;;;5095293;28;20052;-82
2021/07/17 09:13:09;;;;;;;11.43;3.13;;;29.90;51.50;;;;;;5094966;28;20090;-82
2021/07/17 09:15:38;;;;;;;8.50;2.33;;;30.00;51.70;;;;;;5093172;28;20062;-81
2021/07/17 09:18:05;;;;;;;6.97;2.10;;;29.80;50.40;;;;;;5092949;28;20111;-81
2021/07/17 09:20:32;;;;;;;6.13;1.88;;;29.40;50.10;;;;;;5093110;28;20484;-82
2021/07/17 09:23:00;;;;;;;8.45;2.70;;;28.60;51.50;;;;;;5076306;28;20036;-80
2021/07/17 09:25:40;;;;;;;7.75;2.35;;;28.70;54.00;;;;;;5094665;28;20020;-83
2021/07/17 09:28:27;;;;;;;6.78;2.20;;;29.30;53.30;;;;;;5092695;28;20395;-81
2021/07/17 09:30:56;;;;;;;4.85;1.80;;;29.60;51.60;;;;;;5076960;28;20028;-80
2021/07/17 09:33:23;;;;;;;7.07;2.17;;;29.50;52.20;;;;;;5092934;28;20467;-81
2021/07/17 09:35:51;;;;;;;7.07;2.60;;;30.00;53.10;;;;;;5092721;28;20020;-83
2021/07/17 09:38:21;;;;;;;8.90;2.65;;;30.50;52.10;;;;;;5092662;28;20028;-80
2021/07/17 09:40:54;;;;;;;8.00;2.85;;;31.10;51.50;;;;;;5092926;28;20052;-78
2021/07/17 09:43:29;;;;;;;6.32;1.88;;;31.50;50.00;;;;;;5093761;28;20360;-78
2021/07/17 09:45:55;;;;;;;6.35;2.10;;;31.50;50.00;;;;;;5092881;28;20040;-80
2021/07/17 09:48:20;;;;;;;5.93;1.67;;;31.60;48.40;;;;;;5092268;28;20019;-80
2021/07/17 09:50:50;;;;;;;7.88;1.83;;;31.60;49.20;;;;;;5092663;28;20483;-81
2021/07/17 09:53:35;;;;;;;7.55;2.22;;;31.20;49.00;;;;;;5093245;28;20028;-79
2021/07/17 09:56:13;;;;;;;6.40;2.25;;;30.60;51.10;;;;;;5092558;28;20024;-81
2021/07/17 09:58:41;;;;;;;6.72;2.10;;;30.90;50.40;;;;;;5094339;28;20074;-80
2021/07/17 10:01:19;;;;;;;6.68;1.60;;;31.00;49.60;;;;;;5093914;28;20093;-80
2021/07/17 10:03:47;;;;;;;9.80;2.45;;;31.10;49.90;;;;;;5092625;28;20032;-78
2021/07/17 10:06:36;;;;;;;5.57;1.80;;;31.20;49.40;;;;;;5092848;28;20024;-78
2021/07/17 10:09:23;;;;;;;6.20;2.00;;;31.30;49.50;;;;;;5093511;28;20343;-77
2021/07/17 10:11:59;;;;;;;8.30;2.35;;;31.60;49.50;;;;;;5090553;28;20413;-79
2021/07/17 10:14:34;;;;;;;5.60;1.50;;;31.30;48.20;;;;;;5092198;28;20039;-79
2021/07/17 10:17:09;;;;;;;5.70;1.83;;;31.10;49.60;;;;;;5093471;28;20059;-79
2021/07/17 10:19:36;;;;;;;6.20;2.20;;;31.40;49.40;;;;;;5093449;28;20020;-78
2021/07/17 10:22:03;;;;;;;4.70;2.13;;;31.80;48.70;;;;;;5075175;28;20085;-78
2021/07/17 10:24:29;;;;;;;5.47;1.83;;;32.00;48.70;;;;;;5091996;28;20024;-84
2021/07/17 10:26:56;;;;;;;5.22;1.70;;;32.10;48.50;;;;;;5094167;28;20087;-77
2021/07/17 10:29:23;;;;;;;6.80;1.85;;;32.30;48.90;;;;;;5092005;28;20031;-78
2021/07/17 10:31:50;;;;;;;7.07;1.95;;;32.40;48.60;;;;;;5091640;28;20124;-79
2021/07/17 10:34:17;;;;;;;4.60;1.60;;;32.30;48.30;;;;;;5091440;28;20028;-78
2021/07/17 10:37:03;;;;;;;5.25;1.63;;;32.10;47.60;;;;;;5074638;28;20028;-77
2021/07/17 10:39:35;;;;;;;5.05;1.65;;;32.10;47.10;;;;;;5097051;28;20024;-78
2021/07/17 10:42:12;;;;;;;6.05;1.52;;;32.10;49.20;;;;;;5097121;28;20089;-76
2021/07/17 10:44:50;;;;;;;5.05;1.55;;;32.20;48.00;;;;;;5095491;28;20012;-79
2021/07/17 10:47:17;;;;;;;5.80;1.20;;;32.20;47.10;;;;;;5095746;28;20096;-79
2021/07/17 10:49:50;;;;;;;4.70;1.20;;;31.90;48.60;;;;;;5095380;28;20031;-77
2021/07/17 10:52:33;;;;;;;4.70;1.08;;;31.50;48.50;;;;;;5078873;28;20036;-80
2021/07/17 10:55:32;;;;;;;6.05;1.38;;;31.60;47.70;;;;;;5095859;28;20016;-79
2021/07/17 10:58:13;;;;;;;6.28;1.48;;;31.30;49.90;;;;;;5095716;28;20020;-79
2021/07/17 11:00:42;;;;;;;6.40;1.70;;;31.40;49.70;;;;;;5096398;28;20028;-78
2021/07/17 11:03:29;;;;;;;4.20;0.93;;;31.60;49.00;;;;;;5096482;28;20085;-79
2021/07/17 11:05:55;;;;;;;5.85;1.48;;;31.50;48.70;;;;;;5095418;28;20038;-77
2021/07/17 11:08:33;;;;;;;4.85;1.33;;;31.50;48.70;;;;;;5095417;28;20024;-79
2021/07/17 11:11:00;;;;;;;6.18;1.25;;;31.60;49.10;;;;;;5078745;28;20048;-81
2021/07/17 11:13:34;;;;;;;4.78;1.10;;;31.50;49.10;;;;;;5095221;28;20050;-79
2021/07/17 11:16:02;;;;;;;3.20;0.95;;;31.40;47.10;;;;;;5096591;28;20020;-80
2021/07/17 11:18:34;;;;;;;6.50;1.15;;;31.00;49.50;;;;;;5095945;28;20032;-79
2021/07/17 11:21:02;;;;;;;4.88;1.17;;;31.10;48.80;;;;;;5096733;28;20021;-78
2021/07/17 11:23:37;;;;;;;5.50;1.30;;;31.30;48.70;;;;;;5078368;28;20119;-79
2021/07/17 11:26:10;;;;;;;4.43;0.88;;;31.40;49.20;;;;;;5096371;28;20020;-79
2021/07/17 11:28:46;;;;;;;4.07;1.02;;;31.50;48.60;;;;;;5095007;28;20126;-79
2021/07/17 11:31:39;;;;;;;3.33;0.85;;;31.30;48.50;;;;;;5094705;28;20035;-77
2021/07/17 11:34:17;;;;;;;2.63;0.63;;;31.20;48.60;;;;;;5084415;28;20126;-78
2021/07/17 11:36:54;;;;;;;4.25;1.02;;;30.80;47.40;;;;;;5096390;28;20028;-78
2021/07/17 11:39:24;;;;;;;4.90;0.90;;;30.80;49.50;;;;;;5094705;28;20035;-78
2021/07/17 11:41:50;;;;;;;2.95;0.90;;;30.90;49.40;;;;;;5095669;28;20032;-77
2021/07/17 11:44:16;;;;;;;3.90;0.95;;;31.10;49.60;;;;;;5077883;28;20031;-77
2021/07/17 11:47:06;;;;;;;3.35;0.95;;;31.20;49.40;;;;;;5096866;28;20027;-85
2021/07/17 11:49:38;;;;;;;3.88;0.98;;;31.20;48.60;;;;;;5095029;28;20023;-78
2021/07/17 11:52:13;;;;;;;4.57;0.82;;;31.20;48.50;;;;;;5097501;28;20061;-79
2021/07/17 11:54:42;;;;;;;3.65;1.02;;;31.10;49.20;;;;;;5095164;28;20402;-82
2021/07/17 11:57:23;;;;;;;5.07;0.85;;;31.00;50.20;;;;;;5094656;28;20127;-77
2021/07/17 12:00:09;;;;;;;3.83;0.80;;;31.20;50.00;;;;;;5094183;28;20027;-80
2021/07/17 12:02:35;;;;;;;6.18;1.33;;;30.90;47.60;;;;;;5095770;28;20040;-79
2021/07/17 12:05:19;;;;;;;3.55;1.00;;;30.00;49.60;;;;;;5094142;28;20036;-79
2021/07/17 12:07:47;;;;;;;4.13;0.80;;;30.10;50.70;;;;;;5077531;28;20043;-80
2021/07/17 12:10:20;;;;;;;3.58;0.70;;;30.10;48.90;;;;;;5094376;28;20399;-78
2021/07/17 12:12:54;;;;;;;4.30;0.70;;;30.10;49.10;;;;;;5095057;28;20061;-79
2021/07/17 12:15:23;;;;;;;2.42;0.70;;;29.80;50.00;;;;;;5095482;28;20066;-79
2021/07/17 12:17:49;;;;;;;1.80;0.60;;;29.90;50.20;;;;;;5095386;28;20020;-80
2021/07/17 12:20:38;;;;;;;3.55;0.77;;;30.10;49.70;;;;;;5094371;28;20031;-78
2021/07/17 12:23:13;;;;;;;2.40;0.60;;;30.20;49.10;;;;;;5096059;28;20023;-80
2021/07/17 12:25:38;;;;;;;3.15;0.60;;;30.30;49.50;;;;;;5094985;28;20027;-80
2021/07/17 12:28:13;;;;;;;3.40;0.70;;;30.40;48.90;;;;;;5094430;28;20024;-79
2021/07/17 12:30:41;;;;;;;3.85;0.70;;;30.40;48.70;;;;;;5094916;28;20024;-78
2021/07/17 12:33:16;;;;;;;5.38;0.90;;;30.50;48.40;;;;;;5095136;28;20469;-80
2021/07/17 12:35:43;;;;;;;3.13;0.65;;;30.50;48.80;;;;;;5094690;28;20039;-80
2021/07/17 12:38:15;;;;;;;2.75;0.70;;;30.30;49.60;;;;;;5095377;28;20028;-79